Nearby METAR Reports

 

KSJC - San Jose, California, USA
Distance from station: NE 14km
Updated: 19/10/2018 13:53
Clear
Clear
 Wind from S
Wind: S 6 km/h
Temperature: 12°C
Dew Point: 9°C
Humidity: 82%
Barometer: 1019.3 hPa
Clouds: Clear
Visibility: 16 km
2018/10/19 10:53 KSJC 191053Z AUTO 17003KT 10SM CLR 12/09 A3010 RMK AO2 SLP192 T01220089
KNUQ - Moffett Nas/Mtn, California, USA
Distance from station: N 14km
Updated: 19/10/2018 13:56
Clear
Clear
 Wind from calm
Wind: Calm
Temperature: 12°C
Dew Point: 9°C
Humidity: 82%
Barometer: 1019.6 hPa
Clouds: Clear
Visibility: 16 km
2018/10/19 10:56 KNUQ 191056Z AUTO 00000KT 10SM CLR 12/09 A3011 RMK AO2 SLP197 T01170094
 
KPAO - Palo Alto, California, USA
Distance from station: NNW 23km
Updated: 19/10/2018 06:47
NOT Current
Clear
Clear
 Wind from W
Wind: W 11 km/h
Temperature: 15°C
Dew Point: 12°C
Humidity: 82%
Barometer: 1019.3 hPa
Clouds: Clear
Visibility: 16 km
2018/10/19 03:47 KPAO 190347Z 28006KT 10SM SKC 15/12 A3010
KRHV - San Jose/Reid, California, USA
Distance from station: ENE 19km
Updated: 19/10/2018 07:47
NOT Current
Clear
Clear
 Wind from NW
Wind: NW 9 km/h
Temperature: 16°C
Dew Point: 14°C
Humidity: 88%
Barometer: 1018.6 hPa
Clouds: Clear
Visibility: 16 km
2018/10/19 04:47 KRHV 190447Z 31005KT 10SM SKC 16/14 A3008
 
KOAK - Oakland, California, USA
Distance from station: NNW 50km
Updated: 19/10/2018 13:53
Clear
Clear
 Wind from NE
Wind: NE 6 km/h
Temperature: 10°C
Dew Point: 9°C
Humidity: 94%
Barometer: 1019.6 hPa
Clouds: Clear
Visibility: 16 km
2018/10/19 10:53 KOAK 191053Z 04003KT 10SM CLR 10/09 A3011 RMK AO2 SLP195 T01000094
KSQL - San Carlos Airpo, California, USA
Distance from station: NW 34km
Updated: 19/10/2018 14:00
Clear
Clear
 Wind from calm
Wind: Calm
Temperature: 12°C
Dew Point: 9°C
Humidity: 82%
Barometer: 1019.3 hPa
Clouds: Clear
Visibility: 16 km
2018/10/19 11:00 KSQL 191100Z AUTO 00000KT 10SM CLR 12/09 A3010 RMK AO2
 
KSFO - San Francisco, California, USA
Distance from station: NW 49km
Updated: 19/10/2018 13:56
Few Clouds
Few Clouds
 Wind from W
Wind: W 13 km/h
Temperature: 11°C
Dew Point: 9°C
Humidity: 88%
Barometer: 1019.3 hPa
Clouds: Few Clouds
Visibility: 16 km
Cloud details: Few Clouds 183 m
2018/10/19 10:56 KSFO 191056Z 28007KT 10SM FEW006 11/09 A3010 RMK AO2 SLP191 T01110094
KE16 - San Martin, California, USA
Distance from station: ESE 43km
Updated: 19/10/2018 13:15
Mostly cloudy
Mostly cloudy
 Wind from N
Wind: N 6 km/h
Temperature: 9°C
Dew Point: 7°C
Humidity: 87%
Barometer: 1020.3 hPa
Clouds: Mostly cloudy
Visibility: 16 km
Cloud details: Mostly cloudy 1341 m
2018/10/19 10:15 KE16 191015Z AUTO 01003KT 10SM BKN044 09/07 A3013 RMK AO2
 
KWVI - Watsonville, California, USA
Distance from station: SSE 44km
Updated: 19/10/2018 13:53
Clear
Clear
 Wind from NW
Wind: NW 7 km/h
Temperature: 9°C
Wind Chill: 8°C
Dew Point: 8°C
Humidity: 94%
Barometer: 1019.3 hPa
Clouds: Clear
Visibility: 16 km
2018/10/19 10:53 KWVI 191053Z AUTO 32004KT 10SM CLR 09/08 A3010 RMK AO2 SLP192 T00890078 $
KHAF - Half Moon Bay, California, USA
Distance from station: WNW 50km
Updated: 03/10/2018 23:40
NOT Current
Haze, Mostly cloudy
Haze, Mostly cloudy
 Wind from S
Wind: S 7 km/h
Temperature: 18°C
Dew Point: 15°C
Humidity: 83%
Barometer: 1013.2 hPa
Summary: Haze
Clouds: Mostly cloudy
Visibility: 6 km
Cloud details: Few Clouds 640 m
Mostly cloudy 914 m
2018/10/03 20:40 KHAF 032040Z AUTO 19004KT 4SM HZ FEW021 BKN030 18/15 A2992 RMK AO2
 
KHWD - Hayward, California, USA
Distance from station: N 44km
Updated: 19/10/2018 13:54
Clear
Clear
 Wind from calm
Wind: Calm
Temperature: 12°C
Dew Point: 8°C
Humidity: 77%
Barometer: 1019.3 hPa
Clouds: Clear
Visibility: 16 km
2018/10/19 10:54 KHWD 191054Z AUTO 00000KT 10SM CLR 12/08 A3010 RMK AO2 SLP202 T01220078
KLVK - Livermore, California, USA
Distance from station: NNE 51km
Updated: 19/10/2018 13:53
Clear
Clear
 Wind from calm
Wind: Calm
Temperature: 10°C
Dew Point: 5°C
Humidity: 71%
Barometer: 1019.6 hPa
Clouds: Clear
Visibility: 16 km
2018/10/19 10:53 KLVK 191053Z AUTO 00000KT 10SM CLR 10/05 A3011 RMK AO2 SLP192 T01000050